Time;durP1;ratioP1;P1;durP2;ratioP2;P2;SDS_P1;SDS_P2;PMS_P1;PMS_P2;Temp;Humidity;BMP_temperature;BMP_pressure;BME280_temperature;BME280_humidity;BME280_pressure;Samples;Min_cycle;Max_cycle;Signal;HPM_P1;HPM_P2
2024/01/07 00:01:40;;;;;;;5.68;2.35;;;;;;;4.77;50.29;101488.63;5025427;27;98901;-72
2024/01/07 00:04:08;;;;;;;4.95;2.80;;;;;;;4.74;50.49;101490.34;5027528;27;100420;-71
2024/01/07 00:06:34;;;;;;;7.43;2.63;;;;;;;4.73;49.77;101494.72;5026420;27;96668;-71
2024/01/07 00:09:01;;;;;;;4.93;2.70;;;;;;;4.65;50.72;101485.13;5027181;27;96807;-70
2024/01/07 00:11:27;;;;;;;8.18;3.03;;;;;;;4.80;50.48;101485.97;5023876;27;98878;-69
2024/01/07 00:13:54;;;;;;;8.15;3.45;;;;;;;4.76;50.24;101494.72;5024552;27;97460;-73
2024/01/07 00:16:20;;;;;;;7.00;3.80;;;;;;;4.73;50.65;101494.72;5027403;27;97056;-72
2024/01/07 00:18:46;;;;;;;10.85;3.45;;;;;;;4.82;50.42;101497.34;5023161;27;96735;-69
2024/01/07 00:21:14;;;;;;;9.75;3.53;;;;;;;4.77;50.00;101490.38;5024522;27;98923;-70
2024/01/07 00:23:41;;;;;;;10.35;3.53;;;;;;;4.81;50.65;101497.34;5023775;27;99251;-70
2024/01/07 00:26:07;;;;;;;7.85;3.38;;;;;;;5.00;49.31;101501.69;5024447;27;97085;-70
2024/01/07 00:28:34;;;;;;;9.77;4.30;;;;;;;4.90;49.34;101502.59;5024590;27;97315;-71
2024/01/07 00:31:00;;;;;;;9.93;3.55;;;;;;;4.87;49.58;101507.81;5023636;27;100444;-71
2024/01/07 00:33:27;;;;;;;7.70;3.63;;;;;;;4.86;49.74;101515.69;5024875;27;98079;-72
2024/01/07 00:35:53;;;;;;;8.15;3.95;;;;;;;4.68;49.01;101506.94;5025230;27;97660;-72
2024/01/07 00:38:21;;;;;;;9.57;3.30;;;;;;;4.75;49.21;101513.03;5019621;27;97001;-71
2024/01/07 00:40:48;;;;;;;7.97;3.50;;;;;;;4.29;49.30;101519.97;5025180;27;100916;-70
2024/01/07 00:43:14;;;;;;;8.45;3.20;;;;;;;4.37;49.40;101526.09;5026632;27;101599;-70
2024/01/07 00:45:41;;;;;;;7.85;2.75;;;;;;;4.50;48.75;101529.59;5026737;27;96635;-70
2024/01/07 00:48:08;;;;;;;8.27;3.03;;;;;;;4.52;48.56;101528.75;5022415;27;97210;-69
2024/01/07 00:50:34;;;;;;;5.28;2.28;;;;;;;4.60;48.28;101533.97;5022078;27;101426;-69
2024/01/07 00:53:01;;;;;;;6.32;2.90;;;;;;;4.56;48.37;101542.69;5026463;27;98200;-69
2024/01/07 00:55:29;;;;;;;5.82;2.70;;;;;;;4.57;47.98;101541.84;5027484;27;97294;-69
2024/01/07 00:57:56;;;;;;;5.93;3.30;;;;;;;4.55;48.25;101551.41;5020192;27;96917;-71
2024/01/07 01:00:22;;;;;;;4.00;2.10;;;;;;;4.55;48.13;101556.66;5021151;27;102111;-70
2024/01/07 01:02:49;;;;;;;5.05;2.35;;;;;;;4.67;47.68;101557.53;5025354;27;101076;-70
2024/01/07 01:05:16;;;;;;;5.70;2.13;;;;;;;4.61;48.00;101557.53;5031894;27;97088;-69
2024/01/07 01:07:43;;;;;;;5.57;2.40;;;;;;;4.63;47.89;101565.41;5027422;27;97181;-72
2024/01/07 01:10:10;;;;;;;5.35;2.30;;;;;;;4.49;48.19;101567.09;5029408;27;102492;-70
2024/01/07 01:12:38;;;;;;;6.95;2.30;;;;;;;4.27;48.02;101564.44;5023432;27;98772;-71
2024/01/07 01:15:06;;;;;;;5.72;2.00;;;;;;;4.10;47.72;101558.28;5023632;27;98617;-70
2024/01/07 01:17:33;;;;;;;5.93;2.47;;;;;;;3.99;48.48;101573.94;5028320;27;97140;-69
2024/01/07 01:19:59;;;;;;;5.88;2.53;;;;;;;4.26;47.96;101572.28;5027996;27;100967;-70
2024/01/07 01:22:25;;;;;;;4.45;2.38;;;;;;;4.35;48.66;101574.91;5028835;27;97352;-70
2024/01/07 01:24:53;;;;;;;7.75;2.65;;;;;;;4.41;47.49;101573.19;5029657;27;97163;-71
2024/01/07 01:27:19;;;;;;;7.68;2.58;;;;;;;4.57;47.08;101581.97;5026102;27;96805;-71
2024/01/07 01:29:47;;;;;;;3.72;2.53;;;;;;;4.34;47.60;101583.63;5028728;28;101629;-71
2024/01/07 01:32:13;;;;;;;6.97;2.28;;;;;;;4.24;47.32;101577.50;5023468;27;98995;-71
2024/01/07 01:34:40;;;;;;;4.05;2.05;;;;;;;4.13;47.49;101594.91;5028743;27;96790;-70
2024/01/07 01:37:09;;;;;;;6.95;3.05;;;;;;;4.10;47.54;101597.50;5029751;27;97107;-70
2024/01/07 01:39:36;;;;;;;7.28;3.25;;;;;;;3.94;47.70;101606.13;5021284;27;99579;-71
2024/01/07 01:42:02;;;;;;;5.53;2.47;;;;;;;4.09;47.56;101606.22;5025934;27;98952;-71
2024/01/07 01:44:29;;;;;;;5.57;1.90;;;;;;;3.97;47.43;101600.94;5029570;27;96822;-72
2024/01/07 01:46:57;;;;;;;8.32;2.55;;;;;;;4.03;47.11;101608.81;5023730;27;97354;-70
2024/01/07 01:49:24;;;;;;;6.25;2.60;;;;;;;4.11;47.42;101607.09;5027632;27;99500;-71
2024/01/07 01:51:52;;;;;;;5.97;2.08;;;;;;;4.02;47.49;101607.06;5022982;27;97663;-70
2024/01/07 01:54:19;;;;;;;4.50;2.30;;;;;;;4.05;47.78;101616.66;5023834;27;98132;-71
2024/01/07 01:56:46;;;;;;;5.28;2.25;;;;;;;3.76;47.78;101614.75;5024535;27;97078;-69
2024/01/07 01:59:12;;;;;;;8.73;2.58;;;;;;;4.10;47.58;101614.94;5028783;27;99057;-68
2024/01/07 02:01:40;;;;;;;5.60;2.35;;;;;;;4.18;47.52;101619.34;5027243;27;98938;-69
2024/01/07 02:04:09;;;;;;;8.52;2.67;;;;;;;4.03;46.92;101619.25;5029229;27;96581;-69
2024/01/07 02:06:36;;;;;;;5.18;2.33;;;;;;;4.06;47.00;101624.53;5023665;27;96776;-70
2024/01/07 02:09:03;;;;;;;4.90;2.20;;;;;;;3.94;46.75;101619.22;5030639;27;99477;-70
2024/01/07 02:11:29;;;;;;;6.93;1.88;;;;;;;4.07;46.40;101620.16;5016954;27;98862;-71
2024/01/07 02:13:56;;;;;;;3.90;2.20;;;;;;;3.88;47.43;101627.03;5019199;27;96880;-71
2024/01/07 02:16:24;;;;;;;3.42;2.08;;;;;;;3.78;47.23;101620.00;5026899;27;97292;-72
2024/01/07 02:18:50;;;;;;;3.85;2.40;;;;;;;4.08;47.07;101635.84;5025393;27;99597;-71
2024/01/07 02:21:18;;;;;;;4.60;2.15;;;;;;;4.05;46.69;101625.38;5021004;27;98912;-71
2024/01/07 02:23:44;;;;;;;6.72;2.28;;;;;;;3.81;47.29;101626.09;5025664;27;97712;-72
2024/01/07 02:26:12;;;;;;;4.43;2.13;;;;;;;3.75;47.55;101631.31;5021393;27;97041;-71
2024/01/07 02:28:38;;;;;;;4.75;1.98;;;;;;;3.34;47.85;101628.41;5026820;27;97912;-71
2024/01/07 02:31:05;;;;;;;3.88;2.25;;;;;;;3.39;48.06;101638.91;5027651;27;106084;-71
2024/01/07 02:33:31;;;;;;;5.25;2.30;;;;;;;3.48;48.51;101626.75;5026031;27;97512;-71
2024/01/07 02:35:58;;;;;;;4.82;2.25;;;;;;;3.32;48.14;101632.75;5026653;27;96944;-71
2024/01/07 02:38:24;;;;;;;6.40;2.33;;;;;;;3.14;48.72;101637.81;5023617;27;99083;-70
2024/01/07 02:40:50;;;;;;;3.53;1.88;;;;;;;3.03;49.18;101642.03;5026612;27;99305;-69
2024/01/07 02:43:18;;;;;;;6.10;1.70;;;;;;;3.13;48.71;101641.28;5025493;27;96922;-69
2024/01/07 02:45:44;;;;;;;3.15;1.80;;;;;;;2.97;48.58;101644.59;5028456;27;96748;-69
2024/01/07 02:48:11;;;;;;;4.78;1.92;;;;;;;2.95;48.92;101648.94;5027979;27;99194;-69
2024/01/07 02:50:37;;;;;;;6.18;1.77;;;;;;;2.97;49.19;101649.81;5024489;27;99442;-69
2024/01/07 02:53:04;;;;;;;3.72;1.50;;;;;;;3.09;49.03;101650.81;5025975;27;96797;-69
2024/01/07 02:55:31;;;;;;;3.47;1.63;;;;;;;3.10;48.17;101647.34;5024075;27;97239;-75
2024/01/07 02:57:57;;;;;;;2.53;1.40;;;;;;;2.96;48.53;101648.06;5025762;27;97843;-74
2024/01/07 03:00:25;;;;;;;3.38;1.40;;;;;;;2.89;48.82;101648.91;5017434;27;102152;-69
2024/01/07 03:02:52;;;;;;;3.53;1.23;;;;;;;2.88;48.75;101649.75;5015015;27;97016;-72
2024/01/07 03:05:19;;;;;;;4.18;1.80;;;;;;;2.72;49.15;101662.63;5021938;27;96931;-70
2024/01/07 03:07:45;;;;;;;4.60;1.58;;;;;;;2.89;49.04;101661.94;5021805;27;98753;-73
2024/01/07 03:10:12;;;;;;;3.60;1.90;;;;;;;2.90;49.06;101658.44;5021515;27;98725;-71
2024/01/07 03:12:38;;;;;;;3.00;1.67;;;;;;;2.93;48.67;101668.94;5026599;27;97090;-74
2024/01/07 03:15:08;;;;;;;3.92;2.05;;;;;;;3.09;48.41;101660.38;5025113;27;96967;-75
2024/01/07 03:17:36;;;;;;;4.30;1.70;;;;;;;2.69;48.67;101670.41;5020590;27;99863;-75
2024/01/07 03:20:03;;;;;;;3.95;1.50;;;;;;;2.89;48.89;101661.94;5024395;27;99252;-75
2024/01/07 03:22:29;;;;;;;2.85;1.65;;;;;;;3.05;48.75;101676.91;5019937;27;96808;-75
2024/01/07 03:24:55;;;;;;;3.65;1.60;;;;;;;3.03;48.28;101670.78;5022988;27;97082;-75
2024/01/07 03:27:22;;;;;;;5.88;1.95;;;;;;;3.02;48.31;101674.28;5021129;27;99246;-75
2024/01/07 03:29:48;;;;;;;5.70;1.67;;;;;;;3.15;48.17;101673.53;5017981;27;98752;-71
2024/01/07 03:32:15;;;;;;;2.80;1.60;;;;;;;3.05;48.44;101688.22;5015269;27;96763;-70
2024/01/07 03:34:42;;;;;;;3.03;1.73;;;;;;;2.91;48.18;101686.31;5022970;27;98434;-74
2024/01/07 03:37:09;;;;;;;5.10;1.73;;;;;;;2.71;48.69;101686.97;5019874;27;98949;-74
2024/01/07 03:39:35;;;;;;;3.55;2.08;;;;;;;2.68;49.00;101689.56;5022651;27;99022;-75
2024/01/07 03:42:02;;;;;;;3.13;1.52;;;;;;;2.66;49.07;101690.38;5023533;27;97347;-71
2024/01/07 03:44:28;;;;;;;5.70;2.00;;;;;;;2.40;49.61;101695.28;5028121;27;96819;-70
2024/01/07 03:46:55;;;;;;;4.28;1.77;;;;;;;2.38;49.61;101704.81;5023946;27;101365;-70
2024/01/07 03:49:21;;;;;;;5.65;1.70;;;;;;;2.23;49.88;101696.81;5019699;27;99483;-70
2024/01/07 03:51:49;;;;;;;4.07;2.30;;;;;;;2.25;49.81;101705.50;5021651;27;97116;-70
2024/01/07 03:54:15;;;;;;;7.13;2.15;;;;;;;1.99;50.61;101711.25;5025594;27;97012;-70
2024/01/07 03:56:42;;;;;;;2.85;1.92;;;;;;;2.11;50.30;101712.25;5025590;27;99369;-70
2024/01/07 03:59:08;;;;;;;4.57;2.05;;;;;;;2.14;50.34;101713.19;5026082;27;99294;-70
2024/01/07 04:01:35;;;;;;;4.43;2.03;;;;;;;2.44;50.04;101712.72;5020238;27;97172;-74
2024/01/07 04:04:01;;;;;;;2.22;1.67;;;;;;;2.53;49.73;101715.47;5026986;27;96786;-69
2024/01/07 04:06:28;;;;;;;2.67;1.80;;;;;;;2.40;49.52;101724.00;5028868;27;98797;-70
2024/01/07 04:08:56;;;;;;;6.15;1.55;;;;;;;2.36;49.29;101732.63;5026518;27;99171;-70
2024/01/07 04:11:22;;;;;;;5.32;2.55;;;;;;;2.34;48.89;101731.72;5020565;28;99984;-70
2024/01/07 04:13:49;;;;;;;4.68;2.33;;;;;;;2.50;48.82;101738.88;5028076;27;96743;-70
2024/01/07 04:16:19;;;;;;;3.60;1.58;;;;;;;2.22;49.36;101739.38;5019814;27;99072;-70
2024/01/07 04:18:46;;;;;;;2.00;1.42;;;;;;;2.34;48.83;101742.16;5015124;27;97784;-73
2024/01/07 04:21:12;;;;;;;3.88;1.80;;;;;;;2.40;49.15;101739.63;5019955;27;97365;-73
2024/01/07 04:23:39;;;;;;;5.63;1.65;;;;;;;2.45;49.17;101750.13;5025461;27;96866;-73
2024/01/07 04:26:17;;;;;;;3.55;1.70;;;;;;;2.58;48.89;101755.53;5026303;27;101296;-75
2024/01/07 04:28:44;;;;;;;4.22;1.80;;;;;;;2.63;48.26;101753.84;5021395;27;98866;-74
2024/01/07 04:31:11;;;;;;;2.17;1.52;;;;;;;2.48;48.41;101747.56;5016109;27;97317;-73
2024/01/07 04:33:37;;;;;;;3.20;1.55;;;;;;;2.54;48.40;101756.34;5023878;27;97936;-73
2024/01/07 04:36:04;;;;;;;8.90;1.98;;;;;;;2.53;48.49;101757.22;5023115;27;98752;-75
2024/01/07 04:38:30;;;;;;;2.53;1.50;;;;;;;2.46;48.30;101755.38;5024358;27;99287;-72
2024/01/07 04:40:57;;;;;;;5.63;1.77;;;;;;;2.50;48.57;101751.94;5024531;27;97131;-71
2024/01/07 04:43:24;;;;;;;3.38;1.67;;;;;;;2.67;48.35;101760.88;5025201;27;97225;-69
2024/01/07 04:45:50;;;;;;;2.22;1.45;;;;;;;2.61;47.99;101758.19;5021022;27;98965;-76
2024/01/07 04:48:17;;;;;;;4.43;2.33;;;;;;;2.66;48.04;101748.69;5021980;27;100090;-74
2024/01/07 04:50:43;;;;;;;5.03;1.58;;;;;;;2.64;47.67;101757.34;5021503;27;96740;-73
2024/01/07 04:53:09;;;;;;;3.72;1.75;;;;;;;2.55;48.09;101757.25;5022447;27;97263;-70
2024/01/07 04:55:37;;;;;;;2.17;1.40;;;;;;;2.45;48.19;101766.66;5017931;27;98967;-70
2024/01/07 04:58:04;;;;;;;5.93;2.38;;;;;;;2.56;48.07;101759.84;5019028;27;99296;-70
2024/01/07 05:00:32;;;;;;;2.72;1.40;;;;;;;2.53;48.09;101757.22;5014738;27;96740;-70
2024/01/07 05:02:58;;;;;;;4.03;1.60;;;;;;;2.34;48.03;101765.63;5012987;27;98887;-70
2024/01/07 05:05:25;;;;;;;4.47;1.92;;;;;;;2.64;48.13;101768.66;5023627;27;99349;-71
2024/01/07 05:07:51;;;;;;;3.45;1.85;;;;;;;2.83;47.17;101774.09;5021766;27;98944;-70
2024/01/07 05:10:18;;;;;;;6.70;1.92;;;;;;;2.87;46.79;101768.06;5014372;27;97257;-71
2024/01/07 05:12:46;;;;;;;3.80;1.90;;;;;;;2.90;47.72;101782.03;5021192;27;97089;-71
2024/01/07 05:15:13;;;;;;;3.20;1.73;;;;;;;3.05;46.63;101783.94;5016708;27;100239;-72
2024/01/07 05:17:40;;;;;;;3.85;1.75;;;;;;;3.08;47.17;101779.66;5020409;27;99915;-71
2024/01/07 05:20:08;;;;;;;5.45;2.03;;;;;;;2.92;47.14;101776.84;5017226;27;97421;-71
2024/01/07 05:22:35;;;;;;;4.55;1.63;;;;;;;2.93;47.30;101791.66;5023190;27;97965;-71
2024/01/07 05:25:01;;;;;;;2.65;1.63;;;;;;;3.09;46.92;101781.38;5018729;27;101720;-71
2024/01/07 05:27:28;;;;;;;4.25;1.60;;;;;;;3.25;46.78;101792.88;5019045;27;98072;-71
2024/01/07 05:29:56;;;;;;;3.15;2.15;;;;;;;3.25;46.57;101794.63;5014658;27;96664;-70
2024/01/07 05:32:22;;;;;;;6.00;1.50;;;;;;;3.21;46.40;101788.50;5017008;27;97298;-70
2024/01/07 05:34:50;;;;;;;2.92;1.73;;;;;;;2.92;46.82;101796.00;5018192;27;101697;-70
2024/01/07 05:37:17;;;;;;;4.28;1.70;;;;;;;3.08;46.89;101787.50;5013064;27;97465;-70
2024/01/07 05:39:43;;;;;;;3.47;1.83;;;;;;;3.11;46.82;101797.06;5021888;27;98528;-70
2024/01/07 05:42:10;;;;;;;6.72;2.03;;;;;;;3.11;46.52;101807.53;5013961;27;97372;-75
2024/01/07 05:44:37;;;;;;;5.55;2.33;;;;;;;3.50;46.70;101810.56;5026504;27;101568;-75
2024/01/07 05:47:04;;;;;;;3.53;1.58;;;;;;;3.21;45.96;101812.00;5029242;27;99490;-71
2024/01/07 05:49:30;;;;;;;3.83;1.52;;;;;;;3.42;46.26;101822.69;5021590;27;96867;-75
2024/01/07 05:51:58;;;;;;;4.63;2.10;;;;;;;3.18;46.29;101817.19;5027417;27;100221;-74
2024/01/07 05:54:25;;;;;;;6.35;2.25;;;;;;;3.22;46.86;101814.63;5021956;28;98481;-69
2024/01/07 05:56:52;;;;;;;4.20;1.60;;;;;;;3.46;45.74;101828.81;5026976;27;99474;-70
2024/01/07 05:59:18;;;;;;;3.20;1.70;;;;;;;3.25;46.47;101819.00;5025211;27;96747;-70
2024/01/07 06:01:45;;;;;;;2.60;1.60;;;;;;;3.17;46.91;101818.91;5027557;27;96753;-71
2024/01/07 06:04:11;;;;;;;3.55;2.22;;;;;;;3.34;46.82;101821.75;5025516;27;98893;-74
2024/01/07 06:06:38;;;;;;;5.95;1.95;;;;;;;3.05;47.31;101828.34;5022587;27;99293;-74
2024/01/07 06:09:05;;;;;;;6.13;2.00;;;;;;;3.35;46.17;101831.31;5022831;27;97681;-74
2024/01/07 06:11:32;;;;;;;5.03;2.10;;;;;;;3.37;46.20;101834.81;5023554;27;97397;-70
2024/01/07 06:13:58;;;;;;;5.10;2.28;;;;;;;3.55;46.26;101841.97;5021480;28;99492;-71
2024/01/07 06:16:25;;;;;;;6.95;2.38;;;;;;;3.55;46.59;101848.06;5022438;27;99376;-74
2024/01/07 06:18:51;;;;;;;3.65;1.67;;;;;;;3.53;46.57;101836.75;5025532;27;97064;-72
2024/01/07 06:21:18;;;;;;;4.75;2.00;;;;;;;3.41;46.53;101834.00;5023412;27;97232;-73
2024/01/07 06:23:44;;;;;;;3.03;2.08;;;;;;;3.55;46.58;101837.63;5023905;27;101883;-71
2024/01/07 06:26:12;;;;;;;5.88;2.28;;;;;;;3.51;46.82;101843.69;5029931;27;99179;-76
2024/01/07 06:28:38;;;;;;;3.83;2.33;;;;;;;3.53;46.69;101834.13;5028479;27;97234;-75
2024/01/07 06:31:05;;;;;;;4.95;2.22;;;;;;;3.81;45.74;101844.84;5024833;27;97226;-74
2024/01/07 06:33:32;;;;;;;6.50;2.40;;;;;;;3.88;45.60;101849.28;5014335;27;101900;-73
2024/01/07 06:35:58;;;;;;;5.70;2.35;;;;;;;3.70;46.31;101852.59;5029106;27;98882;-74
2024/01/07 06:38:24;;;;;;;5.45;2.20;;;;;;;3.75;45.91;101852.63;5021613;27;97054;-74
2024/01/07 06:40:51;;;;;;;6.45;2.15;;;;;;;3.96;45.57;101852.84;5023878;27;97046;-74
2024/01/07 06:43:19;;;;;;;3.88;2.20;;;;;;;3.81;45.95;101860.53;5026560;27;101825;-74
2024/01/07 06:45:45;;;;;;;5.13;2.30;;;;;;;3.75;46.07;101869.19;5028667;27;98943;-74
2024/01/07 06:48:11;;;;;;;4.82;2.40;;;;;;;3.38;46.99;101862.72;5024452;27;100196;-74
2024/01/07 06:50:38;;;;;;;4.20;2.22;;;;;;;3.42;46.86;101861.88;5022815;27;97110;-74
2024/01/07 06:53:05;;;;;;;5.22;2.22;;;;;;;3.56;46.63;101869.88;5023556;27;98762;-73
2024/01/07 06:55:31;;;;;;;7.18;2.88;;;;;;;3.67;46.64;101875.22;5024034;27;98775;-74
2024/01/07 06:57:57;;;;;;;4.30;2.08;;;;;;;3.82;46.31;101878.84;5024170;27;98083;-74
2024/01/07 07:00:25;;;;;;;3.42;2.35;;;;;;;3.87;46.80;101871.09;5019730;27;97373;-74
2024/01/07 07:02:51;;;;;;;5.72;2.22;;;;;;;3.87;46.78;101873.69;5026690;27;99105;-74
2024/01/07 07:05:18;;;;;;;6.30;2.72;;;;;;;3.80;46.38;101884.94;5028433;27;97644;-74
2024/01/07 07:07:45;;;;;;;3.50;2.10;;;;;;;3.74;46.69;101890.97;5025666;27;97086;-73
2024/01/07 07:10:11;;;;;;;6.47;2.47;;;;;;;3.74;46.58;101883.13;5025075;27;96766;-74
2024/01/07 07:12:38;;;;;;;7.93;2.60;;;;;;;3.73;46.52;101886.63;5025281;27;99096;-73
2024/01/07 07:15:05;;;;;;;4.85;2.10;;;;;;;3.66;46.87;101891.75;5027677;27;98782;-73
2024/01/07 07:17:32;;;;;;;4.95;2.35;;;;;;;3.94;46.75;101906.84;5025626;27;96656;-74
2024/01/07 07:19:59;;;;;;;5.70;2.25;;;;;;;3.61;46.66;101897.81;5020602;28;96811;-74
2024/01/07 07:22:25;;;;;;;5.65;2.40;;;;;;;3.88;46.19;101901.56;5019585;27;98137;-74
2024/01/07 07:24:51;;;;;;;5.45;2.53;;;;;;;3.84;45.68;101905.03;5028500;27;98824;-74
2024/01/07 07:27:18;;;;;;;4.15;1.90;;;;;;;3.92;46.13;101900.75;5024367;27;97703;-74
2024/01/07 07:29:44;;;;;;;4.03;2.28;;;;;;;3.93;46.06;101905.13;5021627;27;97661;-74
2024/01/07 07:32:11;;;;;;;4.55;2.40;;;;;;;3.97;45.43;101902.56;5022034;27;101273;-69
2024/01/07 07:34:38;;;;;;;4.97;2.95;;;;;;;3.92;45.99;101909.47;5021572;27;97833;-68
2024/01/07 07:37:05;;;;;;;4.30;2.28;;;;;;;3.97;45.94;101906.91;5027932;27;96886;-70
2024/01/07 07:39:31;;;;;;;5.43;2.10;;;;;;;4.24;45.86;101916.75;5025816;27;96903;-70
2024/01/07 07:41:58;;;;;;;6.88;2.13;;;;;;;3.87;45.82;101916.38;5022780;27;97598;-70
2024/01/07 07:44:24;;;;;;;3.67;2.28;;;;;;;4.12;45.90;101922.75;5025138;27;102224;-70
2024/01/07 07:46:50;;;;;;;4.20;2.33;;;;;;;4.16;45.22;101918.41;5015226;27;97220;-70
2024/01/07 07:49:17;;;;;;;4.25;2.22;;;;;;;4.05;45.88;101931.41;5024011;27;97183;-70
2024/01/07 07:51:45;;;;;;;5.95;2.10;;;;;;;3.78;46.05;101925.88;5024560;27;97681;-72
2024/01/07 07:54:14;;;;;;;4.93;1.92;;;;;;;3.80;45.55;101935.50;5020608;27;102293;-70
2024/01/07 07:56:40;;;;;;;3.38;1.77;;;;;;;3.98;45.44;101934.81;5027074;27;97217;-71
2024/01/07 07:59:09;;;;;;;5.30;2.55;;;;;;;3.99;45.82;101926.13;5019504;27;96939;-70
2024/01/07 08:01:36;;;;;;;3.75;2.30;;;;;;;3.89;46.00;101927.75;5023897;27;99352;-69
2024/01/07 08:04:04;;;;;;;3.58;2.17;;;;;;;3.90;46.07;101932.13;5023939;27;99947;-70
2024/01/07 08:06:31;;;;;;;3.08;2.13;;;;;;;3.96;46.26;101937.41;5027604;27;97372;-70
2024/01/07 08:08:59;;;;;;;3.53;1.95;;;;;;;4.18;45.20;101946.34;5023894;27;97763;-70
2024/01/07 08:11:25;;;;;;;5.05;2.10;;;;;;;4.37;44.92;101950.00;5018768;27;101816;-70
2024/01/07 08:13:52;;;;;;;4.60;2.00;;;;;;;4.38;45.05;101942.19;5019807;27;99245;-70
2024/01/07 08:16:18;;;;;;;4.53;2.10;;;;;;;4.40;45.36;101943.06;5017418;27;96797;-70
2024/01/07 08:18:45;;;;;;;2.72;2.05;;;;;;;4.33;45.09;101945.63;5025688;28;96918;-69
2024/01/07 08:21:12;;;;;;;9.63;2.95;;;;;;;4.54;45.70;101955.38;5021614;27;101374;-69
2024/01/07 08:23:38;;;;;;;3.85;2.03;;;;;;;4.35;45.89;101960.47;5026114;27;99142;-69
2024/01/07 08:26:06;;;;;;;5.60;1.88;;;;;;;4.45;45.53;101950.97;5016825;28;100744;-68
2024/01/07 08:28:32;;;;;;;2.83;1.70;;;;;;;4.09;46.18;101956.72;5027239;27;96860;-69
2024/01/07 08:30:59;;;;;;;5.20;2.35;;;;;;;4.24;45.94;101956.88;5024823;27;101853;-70
2024/01/07 08:33:31;;;;;;;4.82;2.22;;;;;;;4.11;46.11;101965.47;5021969;27;101383;-69
2024/01/07 08:35:58;;;;;;;4.47;2.20;;;;;;;4.33;46.54;101962.19;5025525;27;97505;-70
2024/01/07 08:38:25;;;;;;;6.20;2.30;;;;;;;4.51;45.83;101965.84;5020366;27;96806;-70
2024/01/07 08:40:51;;;;;;;4.90;2.25;;;;;;;4.50;45.40;101969.31;5020590;28;102132;-69
2024/01/07 08:43:19;;;;;;;4.68;2.58;;;;;;;4.40;45.84;101960.50;5019371;27;98845;-70
2024/01/07 08:45:46;;;;;;;4.07;2.20;;;;;;;4.41;45.63;101949.16;5007879;27;97717;-70
2024/01/07 08:48:12;;;;;;;5.05;2.70;;;;;;;4.09;46.84;101959.34;5021129;27;97250;-71
2024/01/07 08:50:39;;;;;;;6.03;2.45;;;;;;;4.53;46.31;101958.88;5020943;27;98974;-69
2024/01/07 08:53:05;;;;;;;5.70;2.53;;;;;;;4.58;46.32;101960.69;5024997;27;98905;-70
2024/01/07 08:55:32;;;;;;;6.03;2.15;;;;;;;4.90;45.39;101962.66;5026261;27;96882;-69
2024/01/07 08:57:58;;;;;;;6.35;2.60;;;;;;;4.90;44.85;101958.31;5022763;27;97196;-69
2024/01/07 09:00:26;;;;;;;8.60;3.25;;;;;;;4.98;45.01;101956.63;5024893;27;102431;-70
2024/01/07 09:02:57;;;;;;;6.70;2.40;;;;;;;4.98;44.63;101963.59;5024305;27;99264;-71
2024/01/07 09:05:24;;;;;;;6.00;2.65;;;;;;;5.04;45.37;101961.00;5020368;27;97508;-70
2024/01/07 09:07:51;;;;;;;3.65;2.33;;;;;;;5.14;44.81;101963.69;5020653;27;97165;-69
2024/01/07 09:10:18;;;;;;;5.30;2.70;;;;;;;5.00;45.13;101964.47;5014998;27;97830;-68
2024/01/07 09:12:46;;;;;;;6.50;2.83;;;;;;;5.18;45.15;101959.34;5023301;27;99326;-70
2024/01/07 09:15:12;;;;;;;9.10;3.47;;;;;;;4.98;46.29;101977.56;5024006;27;97099;-70
2024/01/07 09:17:40;;;;;;;5.60;3.30;;;;;;;5.14;45.21;101974.16;5022701;27;97333;-70
2024/01/07 09:20:09;;;;;;;6.60;3.03;;;;;;;5.14;45.05;101966.31;5021604;27;98875;-70
2024/01/07 09:22:36;;;;;;;5.55;3.08;;;;;;;5.18;46.04;101968.09;5029795;27;97681;-71
2024/01/07 09:25:04;;;;;;;7.82;3.50;;;;;;;5.04;45.98;101976.72;5027951;27;98212;-70
2024/01/07 09:27:30;;;;;;;7.72;3.85;;;;;;;4.96;46.60;101973.19;5020772;27;98217;-71
2024/01/07 09:29:57;;;;;;;8.90;3.92;;;;;;;5.08;46.68;101974.13;5022702;27;101655;-71
2024/01/07 09:32:23;;;;;;;8.27;3.90;;;;;;;4.92;46.58;101977.53;5028796;27;99645;-70
2024/01/07 09:34:52;;;;;;;4.38;2.67;;;;;;;5.00;46.92;101974.94;5028139;27;100240;-71
2024/01/07 09:37:19;;;;;;;6.65;3.70;;;;;;;5.10;46.46;101975.03;5017717;27;97689;-71
2024/01/07 09:39:45;;;;;;;10.18;3.63;;;;;;;4.83;47.61;101977.44;5020774;27;101437;-71
2024/01/07 09:42:15;;;;;;;6.68;2.95;;;;;;;5.03;47.21;101972.34;5012543;27;99235;-71
2024/01/07 09:44:42;;;;;;;6.15;3.40;;;;;;;5.03;47.03;101973.22;5027809;27;97456;-71
2024/01/07 09:47:11;;;;;;;8.27;3.90;;;;;;;5.07;47.66;101981.97;5026760;27;97475;-71
2024/01/07 09:49:38;;;;;;;9.20;3.92;;;;;;;4.96;47.17;101968.81;5024859;27;98852;-71
2024/01/07 09:52:13;;;;;;;8.73;3.85;;;;;;;4.96;47.87;101983.66;5021484;27;98948;-72
2024/01/07 09:54:41;;;;;;;7.80;3.42;;;;;;;4.76;48.31;101981.75;5027688;27;96834;-71
2024/01/07 09:57:16;;;;;;;10.73;4.40;;;;;;;4.85;48.14;101977.47;5020590;27;97163;-70
2024/01/07 09:59:43;;;;;;;12.52;4.65;;;;;;;4.62;48.22;101991.25;5025426;27;99383;-70
2024/01/07 10:02:09;;;;;;;8.98;3.60;;;;;;;4.79;49.04;101981.78;5019523;27;99189;-71
2024/01/07 10:04:36;;;;;;;10.60;4.32;;;;;;;4.80;49.04;101983.53;5026371;27;97559;-71
2024/01/07 10:07:02;;;;;;;8.88;3.75;;;;;;;4.96;48.48;101978.41;5022245;27;97199;-71
2024/01/07 10:09:34;;;;;;;9.13;4.28;;;;;;;4.82;48.57;101979.19;5021584;27;97811;-70
2024/01/07 10:12:02;;;;;;;7.63;3.83;;;;;;;4.94;48.83;101980.13;5015896;27;97899;-71
2024/01/07 10:14:28;;;;;;;10.80;4.25;;;;;;;5.12;48.20;101986.38;5022407;27;97883;-71
2024/01/07 10:16:54;;;;;;;10.88;4.18;;;;;;;5.04;48.68;101982.84;5028495;27;96757;-70
2024/01/07 10:19:22;;;;;;;8.52;4.07;;;;;;;5.13;49.04;101976.75;5022289;27;99917;-73
2024/01/07 10:22:03;;;;;;;9.70;3.70;;;;;;;4.88;49.69;101975.72;5019032;27;98846;-70
2024/01/07 10:24:41;;;;;;;8.20;4.15;;;;;;;4.92;49.98;101966.16;5024762;27;100944;-71
2024/01/07 10:27:08;;;;;;;10.15;4.18;;;;;;;5.10;50.19;101967.16;5018417;27;102997;-70
2024/01/07 10:29:37;;;;;;;12.90;4.95;;;;;;;5.07;50.03;101972.38;5015498;28;97739;-68
2024/01/07 10:32:08;;;;;;;10.82;4.60;;;;;;;5.03;50.39;101968.00;5022963;27;97506;-70
2024/01/07 10:34:38;;;;;;;9.10;4.63;;;;;;;5.11;50.17;101968.94;5017331;27;100424;-70
2024/01/07 10:37:05;;;;;;;9.45;4.65;;;;;;;4.95;50.25;101967.06;5023607;28;98945;-71
2024/01/07 10:39:32;;;;;;;8.27;4.22;;;;;;;4.84;50.20;101968.72;5016349;27;99710;-71
2024/01/07 10:42:02;;;;;;;9.32;4.45;;;;;;;5.10;50.59;101961.94;5021601;27;101096;-72
2024/01/07 10:44:32;;;;;;;11.00;4.78;;;;;;;5.07;50.93;101961.88;5025964;27;97128;-77
2024/01/07 10:46:59;;;;;;;11.32;5.10;;;;;;;5.39;50.32;101967.31;5019486;27;97597;-75
2024/01/07 10:49:29;;;;;;;8.45;4.72;;;;;;;5.44;49.52;101968.25;5019089;27;98911;-76
2024/01/07 10:52:05;;;;;;;10.18;4.95;;;;;;;5.72;49.41;101984.06;5020276;27;101716;-76
2024/01/07 10:54:34;;;;;;;8.38;3.78;;;;;;;5.68;48.59;101969.19;5021759;27;96720;-76
2024/01/07 10:57:10;;;;;;;11.40;4.70;;;;;;;5.63;47.73;101973.56;5020781;27;97222;-76
2024/01/07 10:59:38;;;;;;;10.32;4.38;;;;;;;5.59;48.24;101964.78;5018799;27;98953;-77
2024/01/07 11:02:04;;;;;;;11.18;4.72;;;;;;;5.47;48.87;101959.50;5022489;27;98765;-76
2024/01/07 11:04:41;;;;;;;10.50;5.00;;;;;;;5.43;48.65;101961.22;5025008;27;98114;-77
2024/01/07 11:07:18;;;;;;;10.38;4.25;;;;;;;5.58;48.80;101965.66;5015695;27;98110;-76
2024/01/07 11:09:57;;;;;;;10.35;4.60;;;;;;;5.54;49.24;101956.03;5016172;27;98803;-75
2024/01/07 11:12:24;;;;;;;8.95;4.43;;;;;;;5.66;49.18;101956.06;5023299;27;102347;-76
2024/01/07 11:14:53;;;;;;;9.43;3.90;;;;;;;5.76;49.18;101970.13;5026625;27;96776;-75
2024/01/07 11:17:45;;;;;;;8.65;4.00;;;;;;;5.70;49.29;101964.84;5024442;27;97192;-77
2024/01/07 11:20:19;;;;;;;9.57;4.53;;;;;;;5.75;49.01;101958.75;5018955;27;99640;-76
2024/01/07 11:22:46;;;;;;;5.45;3.58;;;;;;;5.54;49.47;101970.00;5026915;27;101886;-75
2024/01/07 11:25:32;;;;;;;33.75;13.15;;;;;;;5.49;49.94;101966.50;5022524;27;97586;-76
2024/01/07 11:28:02;;;;;;;9.43;4.97;;;;;;;5.50;50.40;101970.00;5023674;27;97365;-72
2024/01/07 11:30:29;;;;;;;7.88;3.97;;;;;;;5.45;50.64;101969.06;5017536;27;97767;-70
2024/01/07 11:32:59;;;;;;;9.30;4.18;;;;;;;5.43;50.85;101961.22;5025739;27;98803;-70